< < Back
Terminal Aerodrome Forecast


Current Version              Previous Versions:   1  2  3  4  5  6  7  8  9  

Terminal Aerodrome Forecast

754
FTUS42 KFFC 231700
TAFMCN
TAF
KMCN 231739Z 2318/2418 30010KT P6SM SKC
     FM240000 VRB03KT P6SM SKC
     FM241100 04004KT P6SM SKC
     FM241500 10008KT P6SM SKC=



Latest METAR

441
SAUS80 KWBC 241200 RRB
MTRMCN
METAR KMCN 241153Z AUTO 27004KT 10SM CLR 09/08 A3003 RMK AO2 SLP167
T00890083 10100 20067 53025 TSNO


USA.gov is the U.S. government's official web portal to all federal, state and local government web resources and services.